sensor_id;sensor_type;location;lat;lon;timestamp;P1;durP1;ratioP1;P2;durP2;ratioP2
48987;SDS011;34799;51.440;-2.534;2023-10-31T00:01:57;7.28;;;1.70;;
48987;SDS011;34799;51.440;-2.534;2023-10-31T00:04:25;14.45;;;1.80;;
48987;SDS011;34799;51.440;-2.534;2023-10-31T00:06:53;7.32;;;1.38;;
48987;SDS011;34799;51.440;-2.534;2023-10-31T00:09:21;7.63;;;1.60;;
48987;SDS011;34799;51.440;-2.534;2023-10-31T00:11:49;11.07;;;1.10;;
48987;SDS011;34799;51.440;-2.534;2023-10-31T00:14:18;7.72;;;1.45;;
48987;SDS011;34799;51.440;-2.534;2023-10-31T00:16:46;6.47;;;1.27;;
48987;SDS011;34799;51.440;-2.534;2023-10-31T00:19:15;13.15;;;2.30;;
48987;SDS011;34799;51.440;-2.534;2023-10-31T00:21:42;4.85;;;1.80;;
48987;SDS011;34799;51.440;-2.534;2023-10-31T00:24:11;9.77;;;1.65;;
48987;SDS011;34799;51.440;-2.534;2023-10-31T00:26:39;6.45;;;1.67;;
48987;SDS011;34799;51.440;-2.534;2023-10-31T00:29:07;10.32;;;1.55;;
48987;SDS011;34799;51.440;-2.534;2023-10-31T00:31:36;4.93;;;1.10;;
48987;SDS011;34799;51.440;-2.534;2023-10-31T00:34:07;7.85;;;1.73;;
48987;SDS011;34799;51.440;-2.534;2023-10-31T00:36:35;8.63;;;1.52;;
48987;SDS011;34799;51.440;-2.534;2023-10-31T00:39:02;8.68;;;2.50;;
48987;SDS011;34799;51.440;-2.534;2023-10-31T00:41:30;8.85;;;1.88;;
48987;SDS011;34799;51.440;-2.534;2023-10-31T00:43:59;5.03;;;1.27;;
48987;SDS011;34799;51.440;-2.534;2023-10-31T00:46:27;7.43;;;1.52;;
48987;SDS011;34799;51.440;-2.534;2023-10-31T00:48:55;6.50;;;1.55;;
48987;SDS011;34799;51.440;-2.534;2023-10-31T00:51:24;6.82;;;1.35;;
48987;SDS011;34799;51.440;-2.534;2023-10-31T00:53:52;7.13;;;1.52;;
48987;SDS011;34799;51.440;-2.534;2023-10-31T00:56:21;3.47;;;1.85;;
48987;SDS011;34799;51.440;-2.534;2023-10-31T00:58:51;13.68;;;1.88;;
48987;SDS011;34799;51.440;-2.534;2023-10-31T01:01:18;9.23;;;1.92;;
48987;SDS011;34799;51.440;-2.534;2023-10-31T01:03:46;6.55;;;1.10;;
48987;SDS011;34799;51.440;-2.534;2023-10-31T01:06:15;6.35;;;1.70;;
48987;SDS011;34799;51.440;-2.534;2023-10-31T01:08:43;6.80;;;1.20;;
48987;SDS011;34799;51.440;-2.534;2023-10-31T01:11:11;7.22;;;1.30;;
48987;SDS011;34799;51.440;-2.534;2023-10-31T01:13:39;9.00;;;1.60;;
48987;SDS011;34799;51.440;-2.534;2023-10-31T01:16:08;7.00;;;1.20;;
48987;SDS011;34799;51.440;-2.534;2023-10-31T01:18:36;10.60;;;1.52;;
48987;SDS011;34799;51.440;-2.534;2023-10-31T01:21:05;8.57;;;1.25;;
48987;SDS011;34799;51.440;-2.534;2023-10-31T01:23:33;8.77;;;1.30;;
48987;SDS011;34799;51.440;-2.534;2023-10-31T01:26:00;7.10;;;1.27;;
48987;SDS011;34799;51.440;-2.534;2023-10-31T01:28:27;9.43;;;1.73;;
48987;SDS011;34799;51.440;-2.534;2023-10-31T01:30:54;7.25;;;1.83;;
48987;SDS011;34799;51.440;-2.534;2023-10-31T01:33:21;8.65;;;2.00;;
48987;SDS011;34799;51.440;-2.534;2023-10-31T01:35:49;8.15;;;1.02;;
48987;SDS011;34799;51.440;-2.534;2023-10-31T01:38:16;5.03;;;1.50;;
48987;SDS011;34799;51.440;-2.534;2023-10-31T01:40:48;5.47;;;0.90;;
48987;SDS011;34799;51.440;-2.534;2023-10-31T01:43:34;5.50;;;1.20;;
48987;SDS011;34799;51.440;-2.534;2023-10-31T01:48:31;5.45;;;1.30;;
48987;SDS011;34799;51.440;-2.534;2023-10-31T01:50:59;7.97;;;1.13;;
48987;SDS011;34799;51.440;-2.534;2023-10-31T01:53:29;6.35;;;1.10;;
48987;SDS011;34799;51.440;-2.534;2023-10-31T01:56:03;6.00;;;1.23;;
48987;SDS011;34799;51.440;-2.534;2023-10-31T01:58:35;6.75;;;0.85;;
48987;SDS011;34799;51.440;-2.534;2023-10-31T02:01:04;4.80;;;0.80;;
48987;SDS011;34799;51.440;-2.534;2023-10-31T02:03:32;6.90;;;1.10;;
48987;SDS011;34799;51.440;-2.534;2023-10-31T02:06:00;5.20;;;0.95;;
48987;SDS011;34799;51.440;-2.534;2023-10-31T02:08:27;5.65;;;1.45;;
48987;SDS011;34799;51.440;-2.534;2023-10-31T02:10:54;7.10;;;1.08;;
48987;SDS011;34799;51.440;-2.534;2023-10-31T02:13:21;5.18;;;1.40;;
48987;SDS011;34799;51.440;-2.534;2023-10-31T02:15:50;8.82;;;2.05;;
48987;SDS011;34799;51.440;-2.534;2023-10-31T02:18:17;4.72;;;1.13;;
48987;SDS011;34799;51.440;-2.534;2023-10-31T02:20:47;4.63;;;1.30;;
48987;SDS011;34799;51.440;-2.534;2023-10-31T02:23:15;7.80;;;1.17;;
48987;SDS011;34799;51.440;-2.534;2023-10-31T02:25:43;5.35;;;1.05;;
48987;SDS011;34799;51.440;-2.534;2023-10-31T02:28:10;5.38;;;1.02;;
48987;SDS011;34799;51.440;-2.534;2023-10-31T02:30:40;5.40;;;1.45;;
48987;SDS011;34799;51.440;-2.534;2023-10-31T02:33:09;6.10;;;1.80;;
48987;SDS011;34799;51.440;-2.534;2023-10-31T02:35:36;9.80;;;2.00;;
48987;SDS011;34799;51.440;-2.534;2023-10-31T02:38:04;9.90;;;3.13;;
48987;SDS011;34799;51.440;-2.534;2023-10-31T02:40:34;10.60;;;2.85;;
48987;SDS011;34799;51.440;-2.534;2023-10-31T02:43:01;11.05;;;3.35;;
48987;SDS011;34799;51.440;-2.534;2023-10-31T02:45:29;10.75;;;4.13;;
48987;SDS011;34799;51.440;-2.534;2023-10-31T02:47:59;18.35;;;5.15;;
48987;SDS011;34799;51.440;-2.534;2023-10-31T02:50:27;19.65;;;7.35;;
48987;SDS011;34799;51.440;-2.534;2023-10-31T02:52:54;20.20;;;7.80;;
48987;SDS011;34799;51.440;-2.534;2023-10-31T02:55:23;22.45;;;8.02;;
48987;SDS011;34799;51.440;-2.534;2023-10-31T02:57:51;19.15;;;6.95;;
48987;SDS011;34799;51.440;-2.534;2023-10-31T03:00:19;21.40;;;6.50;;
48987;SDS011;34799;51.440;-2.534;2023-10-31T03:02:46;19.25;;;7.10;;
48987;SDS011;34799;51.440;-2.534;2023-10-31T03:05:15;17.38;;;6.75;;
48987;SDS011;34799;51.440;-2.534;2023-10-31T03:07:43;15.55;;;6.20;;
48987;SDS011;34799;51.440;-2.534;2023-10-31T03:10:11;18.88;;;6.22;;
48987;SDS011;34799;51.440;-2.534;2023-10-31T03:12:39;16.05;;;4.70;;
48987;SDS011;34799;51.440;-2.534;2023-10-31T03:15:06;11.68;;;3.80;;
48987;SDS011;34799;51.440;-2.534;2023-10-31T03:17:33;13.98;;;3.05;;
48987;SDS011;34799;51.440;-2.534;2023-10-31T03:20:00;7.30;;;2.15;;
48987;SDS011;34799;51.440;-2.534;2023-10-31T03:22:28;11.07;;;2.15;;
48987;SDS011;34799;51.440;-2.534;2023-10-31T03:24:56;7.25;;;2.15;;
48987;SDS011;34799;51.440;-2.534;2023-10-31T03:27:24;11.07;;;2.13;;
48987;SDS011;34799;51.440;-2.534;2023-10-31T03:29:52;10.57;;;2.20;;
48987;SDS011;34799;51.440;-2.534;2023-10-31T03:32:19;10.27;;;1.88;;
48987;SDS011;34799;51.440;-2.534;2023-10-31T03:34:48;6.50;;;1.52;;
48987;SDS011;34799;51.440;-2.534;2023-10-31T03:37:15;10.27;;;1.85;;
48987;SDS011;34799;51.440;-2.534;2023-10-31T03:39:42;8.88;;;2.05;;
48987;SDS011;34799;51.440;-2.534;2023-10-31T03:42:09;8.77;;;1.92;;
48987;SDS011;34799;51.440;-2.534;2023-10-31T03:44:36;9.60;;;1.85;;
48987;SDS011;34799;51.440;-2.534;2023-10-31T03:47:04;11.70;;;2.53;;
48987;SDS011;34799;51.440;-2.534;2023-10-31T03:49:32;9.40;;;2.22;;
48987;SDS011;34799;51.440;-2.534;2023-10-31T03:51:59;4.18;;;1.27;;
48987;SDS011;34799;51.440;-2.534;2023-10-31T03:54:27;5.05;;;1.40;;
48987;SDS011;34799;51.440;-2.534;2023-10-31T03:56:55;6.07;;;1.88;;
48987;SDS011;34799;51.440;-2.534;2023-10-31T03:59:24;11.40;;;1.98;;
48987;SDS011;34799;51.440;-2.534;2023-10-31T04:01:52;7.97;;;1.90;;
48987;SDS011;34799;51.440;-2.534;2023-10-31T04:04:20;12.23;;;2.13;;
48987;SDS011;34799;51.440;-2.534;2023-10-31T04:06:48;10.77;;;2.83;;
48987;SDS011;34799;51.440;-2.534;2023-10-31T04:09:16;8.30;;;1.60;;
48987;SDS011;34799;51.440;-2.534;2023-10-31T04:11:43;10.73;;;1.70;;
48987;SDS011;34799;51.440;-2.534;2023-10-31T04:14:10;6.93;;;1.48;;
48987;SDS011;34799;51.440;-2.534;2023-10-31T04:16:38;8.82;;;2.53;;
48987;SDS011;34799;51.440;-2.534;2023-10-31T04:19:06;7.88;;;1.67;;
48987;SDS011;34799;51.440;-2.534;2023-10-31T04:21:33;6.07;;;1.10;;
48987;SDS011;34799;51.440;-2.534;2023-10-31T04:24:01;5.15;;;1.67;;
48987;SDS011;34799;51.440;-2.534;2023-10-31T04:26:28;5.35;;;1.05;;
48987;SDS011;34799;51.440;-2.534;2023-10-31T04:28:56;7.22;;;1.42;;
48987;SDS011;34799;51.440;-2.534;2023-10-31T04:31:24;6.13;;;0.95;;
48987;SDS011;34799;51.440;-2.534;2023-10-31T04:33:54;5.93;;;1.15;;
48987;SDS011;34799;51.440;-2.534;2023-10-31T04:36:21;6.45;;;0.90;;
48987;SDS011;34799;51.440;-2.534;2023-10-31T04:38:49;7.40;;;1.30;;
48987;SDS011;34799;51.440;-2.534;2023-10-31T04:41:18;9.43;;;1.08;;
48987;SDS011;34799;51.440;-2.534;2023-10-31T04:43:46;6.88;;;0.93;;
48987;SDS011;34799;51.440;-2.534;2023-10-31T04:46:14;6.82;;;0.90;;
48987;SDS011;34799;51.440;-2.534;2023-10-31T04:48:42;4.93;;;1.15;;
48987;SDS011;34799;51.440;-2.534;2023-10-31T04:51:10;5.35;;;0.90;;
48987;SDS011;34799;51.440;-2.534;2023-10-31T04:53:37;4.93;;;1.05;;
48987;SDS011;34799;51.440;-2.534;2023-10-31T04:56:04;5.15;;;0.90;;
48987;SDS011;34799;51.440;-2.534;2023-10-31T04:58:31;6.25;;;1.20;;
48987;SDS011;34799;51.440;-2.534;2023-10-31T05:00:58;4.35;;;0.80;;
48987;SDS011;34799;51.440;-2.534;2023-10-31T05:03:26;7.82;;;1.63;;
48987;SDS011;34799;51.440;-2.534;2023-10-31T05:05:54;8.18;;;1.80;;
48987;SDS011;34799;51.440;-2.534;2023-10-31T05:08:22;7.88;;;2.20;;
48987;SDS011;34799;51.440;-2.534;2023-10-31T05:10:50;9.32;;;2.28;;
48987;SDS011;34799;51.440;-2.534;2023-10-31T05:13:18;10.80;;;2.40;;
48987;SDS011;34799;51.440;-2.534;2023-10-31T05:15:46;5.07;;;1.90;;
48987;SDS011;34799;51.440;-2.534;2023-10-31T05:18:14;9.50;;;1.77;;
48987;SDS011;34799;51.440;-2.534;2023-10-31T05:20:42;7.47;;;1.48;;
48987;SDS011;34799;51.440;-2.534;2023-10-31T05:23:11;7.20;;;2.35;;
48987;SDS011;34799;51.440;-2.534;2023-10-31T05:25:39;13.77;;;2.53;;
48987;SDS011;34799;51.440;-2.534;2023-10-31T05:28:07;14.88;;;4.82;;
48987;SDS011;34799;51.440;-2.534;2023-10-31T05:30:35;20.40;;;5.65;;
48987;SDS011;34799;51.440;-2.534;2023-10-31T05:33:03;15.98;;;4.88;;
48987;SDS011;34799;51.440;-2.534;2023-10-31T05:35:32;18.10;;;5.18;;
48987;SDS011;34799;51.440;-2.534;2023-10-31T05:38:01;14.75;;;5.07;;
48987;SDS011;34799;51.440;-2.534;2023-10-31T05:40:29;13.40;;;3.97;;
48987;SDS011;34799;51.440;-2.534;2023-10-31T05:42:56;7.70;;;2.78;;
48987;SDS011;34799;51.440;-2.534;2023-10-31T05:45:25;8.80;;;3.08;;
48987;SDS011;34799;51.440;-2.534;2023-10-31T05:47:53;11.60;;;3.40;;
48987;SDS011;34799;51.440;-2.534;2023-10-31T05:50:20;8.85;;;3.40;;
48987;SDS011;34799;51.440;-2.534;2023-10-31T05:52:47;9.02;;;2.90;;
48987;SDS011;34799;51.440;-2.534;2023-10-31T05:55:14;8.68;;;2.70;;
48987;SDS011;34799;51.440;-2.534;2023-10-31T05:57:42;11.05;;;2.67;;
48987;SDS011;34799;51.440;-2.534;2023-10-31T06:00:09;7.03;;;2.65;;
48987;SDS011;34799;51.440;-2.534;2023-10-31T06:02:39;6.85;;;1.95;;
48987;SDS011;34799;51.440;-2.534;2023-10-31T06:05:06;7.28;;;2.33;;
48987;SDS011;34799;51.440;-2.534;2023-10-31T06:07:34;11.13;;;2.42;;
48987;SDS011;34799;51.440;-2.534;2023-10-31T06:10:02;9.57;;;1.60;;
48987;SDS011;34799;51.440;-2.534;2023-10-31T06:12:30;7.50;;;1.70;;
48987;SDS011;34799;51.440;-2.534;2023-10-31T06:14:57;6.43;;;2.00;;
48987;SDS011;34799;51.440;-2.534;2023-10-31T06:17:25;4.95;;;1.98;;
48987;SDS011;34799;51.440;-2.534;2023-10-31T06:19:53;5.68;;;1.73;;
48987;SDS011;34799;51.440;-2.534;2023-10-31T06:22:21;6.32;;;1.85;;
48987;SDS011;34799;51.440;-2.534;2023-10-31T06:24:49;9.15;;;2.05;;
48987;SDS011;34799;51.440;-2.534;2023-10-31T06:27:17;3.92;;;1.52;;
48987;SDS011;34799;51.440;-2.534;2023-10-31T06:29:45;5.70;;;1.98;;
48987;SDS011;34799;51.440;-2.534;2023-10-31T06:32:15;5.00;;;1.90;;
48987;SDS011;34799;51.440;-2.534;2023-10-31T06:34:43;7.00;;;1.40;;
48987;SDS011;34799;51.440;-2.534;2023-10-31T06:37:11;7.65;;;1.52;;
48987;SDS011;34799;51.440;-2.534;2023-10-31T06:39:40;8.82;;;1.73;;
48987;SDS011;34799;51.440;-2.534;2023-10-31T06:42:08;6.93;;;1.10;;
48987;SDS011;34799;51.440;-2.534;2023-10-31T06:44:36;6.00;;;1.00;;
48987;SDS011;34799;51.440;-2.534;2023-10-31T06:47:04;8.57;;;1.25;;
48987;SDS011;34799;51.440;-2.534;2023-10-31T06:49:32;5.82;;;1.30;;
48987;SDS011;34799;51.440;-2.534;2023-10-31T06:51:59;3.50;;;1.10;;
48987;SDS011;34799;51.440;-2.534;2023-10-31T06:54:26;6.43;;;1.65;;
48987;SDS011;34799;51.440;-2.534;2023-10-31T06:56:53;6.65;;;1.17;;
48987;SDS011;34799;51.440;-2.534;2023-10-31T06:59:20;4.32;;;1.25;;
48987;SDS011;34799;51.440;-2.534;2023-10-31T07:01:47;5.57;;;1.40;;
48987;SDS011;34799;51.440;-2.534;2023-10-31T07:04:15;6.93;;;1.40;;
48987;SDS011;34799;51.440;-2.534;2023-10-31T07:06:43;7.28;;;1.20;;
48987;SDS011;34799;51.440;-2.534;2023-10-31T07:09:12;7.35;;;1.65;;
48987;SDS011;34799;51.440;-2.534;2023-10-31T07:11:40;7.43;;;1.75;;
48987;SDS011;34799;51.440;-2.534;2023-10-31T07:14:08;8.88;;;1.77;;
48987;SDS011;34799;51.440;-2.534;2023-10-31T07:16:35;6.55;;;2.35;;
48987;SDS011;34799;51.440;-2.534;2023-10-31T07:19:02;5.82;;;1.65;;
48987;SDS011;34799;51.440;-2.534;2023-10-31T07:21:29;8.68;;;1.80;;
48987;SDS011;34799;51.440;-2.534;2023-10-31T07:23:56;5.82;;;1.67;;
48987;SDS011;34799;51.440;-2.534;2023-10-31T07:26:24;8.60;;;1.90;;
48987;SDS011;34799;51.440;-2.534;2023-10-31T07:28:52;6.32;;;2.42;;
48987;SDS011;34799;51.440;-2.534;2023-10-31T07:31:21;7.55;;;1.95;;
48987;SDS011;34799;51.440;-2.534;2023-10-31T07:33:49;8.55;;;2.45;;
48987;SDS011;34799;51.440;-2.534;2023-10-31T07:36:16;8.00;;;2.20;;
48987;SDS011;34799;51.440;-2.534;2023-10-31T07:38:44;6.60;;;1.10;;
48987;SDS011;34799;51.440;-2.534;2023-10-31T07:41:12;8.85;;;2.13;;
48987;SDS011;34799;51.440;-2.534;2023-10-31T07:43:40;5.45;;;1.30;;
48987;SDS011;34799;51.440;-2.534;2023-10-31T07:46:09;6.53;;;1.30;;
48987;SDS011;34799;51.440;-2.534;2023-10-31T07:48:37;5.95;;;1.52;;
48987;SDS011;34799;51.440;-2.534;2023-10-31T07:51:05;7.40;;;1.52;;
48987;SDS011;34799;51.440;-2.534;2023-10-31T07:53:34;8.40;;;1.40;;
48987;SDS011;34799;51.440;-2.534;2023-10-31T07:56:02;9.00;;;1.40;;
48987;SDS011;34799;51.440;-2.534;2023-10-31T07:58:30;9.10;;;1.45;;
48987;SDS011;34799;51.440;-2.534;2023-10-31T08:00:58;7.43;;;1.30;;
48987;SDS011;34799;51.440;-2.534;2023-10-31T08:03:27;7.72;;;1.50;;
48987;SDS011;34799;51.440;-2.534;2023-10-31T08:05:55;11.45;;;2.40;;
48987;SDS011;34799;51.440;-2.534;2023-10-31T08:08:23;7.78;;;2.20;;
48987;SDS011;34799;51.440;-2.534;2023-10-31T08:10:52;8.75;;;2.53;;
48987;SDS011;34799;51.440;-2.534;2023-10-31T08:13:20;8.77;;;3.15;;
48987;SDS011;34799;51.440;-2.534;2023-10-31T08:15:48;8.25;;;3.08;;
48987;SDS011;34799;51.440;-2.534;2023-10-31T08:18:16;14.50;;;3.15;;
48987;SDS011;34799;51.440;-2.534;2023-10-31T08:20:45;7.30;;;2.25;;
48987;SDS011;34799;51.440;-2.534;2023-10-31T08:23:16;7.20;;;2.38;;
48987;SDS011;34799;51.440;-2.534;2023-10-31T08:25:44;5.60;;;2.22;;
48987;SDS011;34799;51.440;-2.534;2023-10-31T08:28:11;6.15;;;2.13;;
48987;SDS011;34799;51.440;-2.534;2023-10-31T08:30:39;4.93;;;1.98;;
48987;SDS011;34799;51.440;-2.534;2023-10-31T08:33:08;6.03;;;2.38;;
48987;SDS011;34799;51.440;-2.534;2023-10-31T08:35:37;6.85;;;1.95;;
48987;SDS011;34799;51.440;-2.534;2023-10-31T08:38:05;7.43;;;2.88;;
48987;SDS011;34799;51.440;-2.534;2023-10-31T08:40:34;6.82;;;1.80;;
48987;SDS011;34799;51.440;-2.534;2023-10-31T08:43:01;5.25;;;1.40;;
48987;SDS011;34799;51.440;-2.534;2023-10-31T08:45:31;5.63;;;1.50;;
48987;SDS011;34799;51.440;-2.534;2023-10-31T08:48:00;5.50;;;1.48;;
48987;SDS011;34799;51.440;-2.534;2023-10-31T08:50:28;6.15;;;1.52;;
48987;SDS011;34799;51.440;-2.534;2023-10-31T08:52:55;4.35;;;1.33;;
48987;SDS011;34799;51.440;-2.534;2023-10-31T08:55:24;5.90;;;1.60;;
48987;SDS011;34799;51.440;-2.534;2023-10-31T08:57:52;4.10;;;0.70;;
48987;SDS011;34799;51.440;-2.534;2023-10-31T09:00:20;4.65;;;0.45;;
48987;SDS011;34799;51.440;-2.534;2023-10-31T09:02:48;3.83;;;0.50;;
48987;SDS011;34799;51.440;-2.534;2023-10-31T09:05:16;3.78;;;0.70;;
48987;SDS011;34799;51.440;-2.534;2023-10-31T09:07:44;5.03;;;0.93;;
48987;SDS011;34799;51.440;-2.534;2023-10-31T09:10:13;2.38;;;0.40;;
48987;SDS011;34799;51.440;-2.534;2023-10-31T09:12:41;3.47;;;0.32;;
48987;SDS011;34799;51.440;-2.534;2023-10-31T09:15:09;3.72;;;0.30;;
48987;SDS011;34799;51.440;-2.534;2023-10-31T09:17:38;4.53;;;0.43;;
48987;SDS011;34799;51.440;-2.534;2023-10-31T09:20:06;2.90;;;0.35;;
48987;SDS011;34799;51.440;-2.534;2023-10-31T09:22:35;2.53;;;0.30;;
48987;SDS011;34799;51.440;-2.534;2023-10-31T09:25:03;0.77;;;0.40;;
48987;SDS011;34799;51.440;-2.534;2023-10-31T09:27:31;5.72;;;0.40;;
48987;SDS011;34799;51.440;-2.534;2023-10-31T09:29:58;2.15;;;0.30;;
48987;SDS011;34799;51.440;-2.534;2023-10-31T09:32:25;2.35;;;0.50;;
48987;SDS011;34799;51.440;-2.534;2023-10-31T09:34:52;3.75;;;0.28;;
48987;SDS011;34799;51.440;-2.534;2023-10-31T09:37:19;2.78;;;0.20;;
48987;SDS011;34799;51.440;-2.534;2023-10-31T09:39:47;2.47;;;0.20;;
48987;SDS011;34799;51.440;-2.534;2023-10-31T09:42:14;4.43;;;0.43;;
48987;SDS011;34799;51.440;-2.534;2023-10-31T09:44:42;1.08;;;0.20;;
48987;SDS011;34799;51.440;-2.534;2023-10-31T09:47:10;4.47;;;0.30;;
48987;SDS011;34799;51.440;-2.534;2023-10-31T09:49:42;2.47;;;0.20;;
48987;SDS011;34799;51.440;-2.534;2023-10-31T09:52:10;2.97;;;0.30;;
48987;SDS011;34799;51.440;-2.534;2023-10-31T09:54:37;4.30;;;0.10;;
48987;SDS011;34799;51.440;-2.534;2023-10-31T09:57:06;5.80;;;0.20;;
48987;SDS011;34799;51.440;-2.534;2023-10-31T09:59:33;5.50;;;0.32;;
48987;SDS011;34799;51.440;-2.534;2023-10-31T10:02:01;7.85;;;0.35;;
48987;SDS011;34799;51.440;-2.534;2023-10-31T10:04:30;3.47;;;0.30;;
48987;SDS011;34799;51.440;-2.534;2023-10-31T10:06:58;1.17;;;0.10;;
48987;SDS011;34799;51.440;-2.534;2023-10-31T10:09:27;1.73;;;0.30;;
48987;SDS011;34799;51.440;-2.534;2023-10-31T10:12:00;3.55;;;0.20;;
48987;SDS011;34799;51.440;-2.534;2023-10-31T10:14:29;1.95;;;0.15;;
48987;SDS011;34799;51.440;-2.534;2023-10-31T10:16:58;7.75;;;0.20;;
48987;SDS011;34799;51.440;-2.534;2023-10-31T10:19:25;1.58;;;0.10;;
48987;SDS011;34799;51.440;-2.534;2023-10-31T10:21:53;4.45;;;0.15;;
48987;SDS011;34799;51.440;-2.534;2023-10-31T10:24:22;2.17;;;0.20;;
48987;SDS011;34799;51.440;-2.534;2023-10-31T10:26:51;1.38;;;0.10;;
48987;SDS011;34799;51.440;-2.534;2023-10-31T10:29:18;2.97;;;0.20;;
48987;SDS011;34799;51.440;-2.534;2023-10-31T10:31:46;3.33;;;0.20;;
48987;SDS011;34799;51.440;-2.534;2023-10-31T10:34:16;2.53;;;0.20;;
48987;SDS011;34799;51.440;-2.534;2023-10-31T10:36:47;3.58;;;0.20;;
48987;SDS011;34799;51.440;-2.534;2023-10-31T10:39:19;1.42;;;0.08;;
48987;SDS011;34799;51.440;-2.534;2023-10-31T10:41:52;3.13;;;0.20;;
48987;SDS011;34799;51.440;-2.534;2023-10-31T10:44:33;5.07;;;0.20;;
48987;SDS011;34799;51.440;-2.534;2023-10-31T10:47:05;1.95;;;0.15;;
48987;SDS011;34799;51.440;-2.534;2023-10-31T10:49:33;2.35;;;0.10;;
48987;SDS011;34799;51.440;-2.534;2023-10-31T11:00:22;2.37;;;0.20;;
48987;SDS011;34799;51.440;-2.534;2023-10-31T11:02:52;4.40;;;0.22;;
48987;SDS011;34799;51.440;-2.534;2023-10-31T11:05:20;2.92;;;0.20;;
48987;SDS011;34799;51.440;-2.534;2023-10-31T11:07:47;1.48;;;0.38;;
48987;SDS011;34799;51.440;-2.534;2023-10-31T11:10:16;4.28;;;0.40;;
48987;SDS011;34799;51.440;-2.534;2023-10-31T11:12:44;6.65;;;0.30;;
48987;SDS011;34799;51.440;-2.534;2023-10-31T11:15:12;4.32;;;0.60;;
48987;SDS011;34799;51.440;-2.534;2023-10-31T11:17:42;3.13;;;0.28;;
48987;SDS011;34799;51.440;-2.534;2023-10-31T11:20:13;1.27;;;0.17;;
48987;SDS011;34799;51.440;-2.534;2023-10-31T11:22:45;3.13;;;0.22;;
48987;SDS011;34799;51.440;-2.534;2023-10-31T11:25:18;3.75;;;0.20;;
48987;SDS011;34799;51.440;-2.534;2023-10-31T11:27:49;1.77;;;0.20;;
48987;SDS011;34799;51.440;-2.534;2023-10-31T11:30:21;3.40;;;0.22;;
48987;SDS011;34799;51.440;-2.534;2023-10-31T11:32:54;1.23;;;0.50;;
48987;SDS011;34799;51.440;-2.534;2023-10-31T11:35:24;4.65;;;0.38;;
48987;SDS011;34799;51.440;-2.534;2023-10-31T11:38:02;4.25;;;0.47;;
48987;SDS011;34799;51.440;-2.534;2023-10-31T11:40:37;4.78;;;0.28;;
48987;SDS011;34799;51.440;-2.534;2023-10-31T11:43:10;1.77;;;0.22;;
48987;SDS011;34799;51.440;-2.534;2023-10-31T11:45:42;4.82;;;0.25;;
48987;SDS011;34799;51.440;-2.534;2023-10-31T11:48:12;3.42;;;0.40;;
48987;SDS011;34799;51.440;-2.534;2023-10-31T11:50:41;4.25;;;0.45;;
48987;SDS011;34799;51.440;-2.534;2023-10-31T11:53:12;5.82;;;0.30;;
48987;SDS011;34799;51.440;-2.534;2023-10-31T11:55:43;5.28;;;0.25;;
48987;SDS011;34799;51.440;-2.534;2023-10-31T11:58:14;5.57;;;0.68;;
48987;SDS011;34799;51.440;-2.534;2023-10-31T12:00:42;4.80;;;0.20;;
48987;SDS011;34799;51.440;-2.534;2023-10-31T12:03:09;4.95;;;0.28;;
48987;SDS011;34799;51.440;-2.534;2023-10-31T12:05:36;3.95;;;0.22;;
48987;SDS011;34799;51.440;-2.534;2023-10-31T12:08:03;5.57;;;0.65;;
48987;SDS011;34799;51.440;-2.534;2023-10-31T12:10:30;6.30;;;0.20;;
48987;SDS011;34799;51.440;-2.534;2023-10-31T12:12:58;2.90;;;0.30;;
48987;SDS011;34799;51.440;-2.534;2023-10-31T12:15:25;4.75;;;0.40;;
48987;SDS011;34799;51.440;-2.534;2023-10-31T12:17:57;3.42;;;0.30;;
48987;SDS011;34799;51.440;-2.534;2023-10-31T12:20:25;5.60;;;0.20;;
48987;SDS011;34799;51.440;-2.534;2023-10-31T12:23:02;9.07;;;0.35;;
48987;SDS011;34799;51.440;-2.534;2023-10-31T12:25:30;3.17;;;0.82;;
48987;SDS011;34799;51.440;-2.534;2023-10-31T12:28:01;3.80;;;0.40;;
48987;SDS011;34799;51.440;-2.534;2023-10-31T12:30:28;5.18;;;0.32;;
48987;SDS011;34799;51.440;-2.534;2023-10-31T12:32:56;4.25;;;0.30;;
48987;SDS011;34799;51.440;-2.534;2023-10-31T12:35:24;5.28;;;0.30;;
48987;SDS011;34799;51.440;-2.534;2023-10-31T12:37:53;4.82;;;0.40;;
48987;SDS011;34799;51.440;-2.534;2023-10-31T12:40:21;4.13;;;0.32;;
48987;SDS011;34799;51.440;-2.534;2023-10-31T12:42:49;5.30;;;0.28;;
48987;SDS011;34799;51.440;-2.534;2023-10-31T12:45:17;3.75;;;0.50;;
48987;SDS011;34799;51.440;-2.534;2023-10-31T12:47:45;3.20;;;0.25;;
48987;SDS011;34799;51.440;-2.534;2023-10-31T12:50:28;6.70;;;0.73;;
48987;SDS011;34799;51.440;-2.534;2023-10-31T12:52:55;2.35;;;0.50;;
48987;SDS011;34799;51.440;-2.534;2023-10-31T12:55:27;6.88;;;0.85;;
48987;SDS011;34799;51.440;-2.534;2023-10-31T12:57:56;4.60;;;1.02;;
48987;SDS011;34799;51.440;-2.534;2023-10-31T13:00:34;3.92;;;0.43;;
48987;SDS011;34799;51.440;-2.534;2023-10-31T13:03:03;3.50;;;0.17;;
48987;SDS011;34799;51.440;-2.534;2023-10-31T13:05:31;1.63;;;0.40;;
48987;SDS011;34799;51.440;-2.534;2023-10-31T13:07:59;3.28;;;0.50;;
48987;SDS011;34799;51.440;-2.534;2023-10-31T13:10:30;4.28;;;0.40;;
48987;SDS011;34799;51.440;-2.534;2023-10-31T13:13:00;5.10;;;0.30;;
48987;SDS011;34799;51.440;-2.534;2023-10-31T13:15:27;2.78;;;0.20;;
48987;SDS011;34799;51.440;-2.534;2023-10-31T13:17:55;4.80;;;0.30;;
48987;SDS011;34799;51.440;-2.534;2023-10-31T13:20:23;2.70;;;0.35;;
48987;SDS011;34799;51.440;-2.534;2023-10-31T13:22:50;5.07;;;0.40;;
48987;SDS011;34799;51.440;-2.534;2023-10-31T13:25:18;4.57;;;0.20;;
48987;SDS011;34799;51.440;-2.534;2023-10-31T13:27:45;5.55;;;0.20;;
48987;SDS011;34799;51.440;-2.534;2023-10-31T13:30:17;4.88;;;0.95;;
48987;SDS011;34799;51.440;-2.534;2023-10-31T13:32:44;4.25;;;0.32;;
48987;SDS011;34799;51.440;-2.534;2023-10-31T13:35:12;4.35;;;0.20;;
48987;SDS011;34799;51.440;-2.534;2023-10-31T13:37:41;4.97;;;0.30;;
48987;SDS011;34799;51.440;-2.534;2023-10-31T13:40:09;5.22;;;1.45;;
48987;SDS011;34799;51.440;-2.534;2023-10-31T13:42:37;9.02;;;0.65;;
48987;SDS011;34799;51.440;-2.534;2023-10-31T13:45:05;3.67;;;0.43;;
48987;SDS011;34799;51.440;-2.534;2023-10-31T13:47:33;3.00;;;0.35;;
48987;SDS011;34799;51.440;-2.534;2023-10-31T13:50:01;4.65;;;0.40;;
48987;SDS011;34799;51.440;-2.534;2023-10-31T13:52:29;2.20;;;0.20;;
48987;SDS011;34799;51.440;-2.534;2023-10-31T13:54:58;4.10;;;0.20;;
48987;SDS011;34799;51.440;-2.534;2023-10-31T13:57:27;2.08;;;0.20;;
48987;SDS011;34799;51.440;-2.534;2023-10-31T13:59:54;5.35;;;0.40;;
48987;SDS011;34799;51.440;-2.534;2023-10-31T14:02:22;2.70;;;0.20;;
48987;SDS011;34799;51.440;-2.534;2023-10-31T14:04:50;1.70;;;0.10;;
48987;SDS011;34799;51.440;-2.534;2023-10-31T14:07:21;5.63;;;0.35;;
48987;SDS011;34799;51.440;-2.534;2023-10-31T14:09:51;1.42;;;0.10;;
48987;SDS011;34799;51.440;-2.534;2023-10-31T14:12:19;4.30;;;0.30;;
48987;SDS011;34799;51.440;-2.534;2023-10-31T14:14:46;1.77;;;0.13;;
48987;SDS011;34799;51.440;-2.534;2023-10-31T14:17:16;3.00;;;0.28;;
48987;SDS011;34799;51.440;-2.534;2023-10-31T14:19:43;2.70;;;0.35;;
48987;SDS011;34799;51.440;-2.534;2023-10-31T14:22:11;4.18;;;0.50;;
48987;SDS011;34799;51.440;-2.534;2023-10-31T14:24:40;3.75;;;0.40;;
48987;SDS011;34799;51.440;-2.534;2023-10-31T14:27:08;3.47;;;0.65;;
48987;SDS011;34799;51.440;-2.534;2023-10-31T14:29:35;2.88;;;0.30;;
48987;SDS011;34799;51.440;-2.534;2023-10-31T14:32:06;6.60;;;1.15;;
48987;SDS011;34799;51.440;-2.534;2023-10-31T14:34:35;5.90;;;0.70;;
48987;SDS011;34799;51.440;-2.534;2023-10-31T14:37:02;5.30;;;0.57;;
48987;SDS011;34799;51.440;-2.534;2023-10-31T14:39:29;3.20;;;0.38;;
48987;SDS011;34799;51.440;-2.534;2023-10-31T14:41:57;4.70;;;0.50;;
48987;SDS011;34799;51.440;-2.534;2023-10-31T14:44:24;5.00;;;0.63;;
48987;SDS011;34799;51.440;-2.534;2023-10-31T14:46:53;5.03;;;0.75;;
48987;SDS011;34799;51.440;-2.534;2023-10-31T14:49:22;7.10;;;1.10;;
48987;SDS011;34799;51.440;-2.534;2023-10-31T14:51:49;6.05;;;1.20;;